createdAt,value
2018-10-17T00:00:24.162Z,79.07
2018-10-17T00:02:51.128Z,77.52
2018-10-17T00:05:21.199Z,77.61
2018-10-17T00:07:48.126Z,77.93
2018-10-17T00:10:15.090Z,79.80
2018-10-17T00:12:42.094Z,81.86
2018-10-17T00:15:10.963Z,82.03
2018-10-17T00:17:38.866Z,82.04
2018-10-17T00:20:06.799Z,81.47
2018-10-17T00:22:35.671Z,83.74
2018-10-17T00:25:02.624Z,84.20
2018-10-17T00:27:29.518Z,83.46
2018-10-17T00:29:56.486Z,84.03
2018-10-17T00:32:23.475Z,82.21
2018-10-17T00:34:50.441Z,81.16
2018-10-17T00:37:25.819Z,82.06
2018-10-17T00:39:53.722Z,82.71
2018-10-17T00:42:21.736Z,82.47
2018-10-17T00:44:48.582Z,81.09
2018-10-17T00:47:15.632Z,80.77
2018-10-17T00:49:42.501Z,79.88
2018-10-17T00:52:09.490Z,79.69
2018-10-17T00:54:36.496Z,79.16
2018-10-17T00:57:04.425Z,81.26
2018-10-17T00:59:31.299Z,80.14
2018-10-17T01:01:59.186Z,81.53
2018-10-17T01:04:30.632Z,80.13
2018-10-17T01:06:57.546Z,79.33
2018-10-17T01:09:24.518Z,80.53
2018-10-17T01:11:51.479Z,80.52
2018-10-17T01:14:18.446Z,84.07
2018-10-17T01:16:46.364Z,84.04
2018-10-17T01:19:13.390Z,82.98
2018-10-17T01:21:40.296Z,82.88
2018-10-17T01:24:07.250Z,82.88
2018-10-17T01:26:34.122Z,82.45
2018-10-17T01:29:01.025Z,81.72
2018-10-17T01:31:27.991Z,81.59
2018-10-17T01:33:56.886Z,82.89
2018-10-17T01:36:23.870Z,80.92
2018-10-17T01:38:50.817Z,81.42
2018-10-17T01:41:18.819Z,82.25
2018-10-17T01:43:45.586Z,83.17
2018-10-17T01:46:15.619Z,82.69
2018-10-17T01:48:43.517Z,82.31
2018-10-17T01:51:10.414Z,81.61
2018-10-17T01:53:37.376Z,80.58
2018-10-17T01:56:04.682Z,81.67
2018-10-17T01:58:31.551Z,80.70
2018-10-17T02:00:59.515Z,82.18
2018-10-17T02:03:26.474Z,80.83
2018-10-17T02:05:53.484Z,80.94
2018-10-17T02:08:21.719Z,81.86
2018-10-17T02:13:47.123Z,83.62
2018-10-17T02:16:17.666Z,80.35
2018-10-17T02:18:44.641Z,79.93
2018-10-17T02:21:13.523Z,82.83
2018-10-17T02:23:47.977Z,83.46
2018-10-17T02:26:14.994Z,82.96
2018-10-17T02:28:43.849Z,82.37
2018-10-17T02:31:10.841Z,82.28
2018-10-17T02:33:37.750Z,81.54
2018-10-17T02:36:08.090Z,80.98
2018-10-17T02:38:45.001Z,82.26
2018-10-17T02:41:26.139Z,82.89
2018-10-17T02:43:58.406Z,80.37
2018-10-17T02:46:25.258Z,82.59
2018-10-17T02:48:52.125Z,80.79
2018-10-17T02:51:18.971Z,80.57
2018-10-17T02:53:45.847Z,81.89
2018-10-17T02:56:12.725Z,82.08
2018-10-17T02:58:39.581Z,81.23
2018-10-17T03:01:06.516Z,80.66
2018-10-17T03:03:33.299Z,80.48
2018-10-17T03:06:00.185Z,81.23
2018-10-17T03:08:34.279Z,81.86
2018-10-17T03:11:01.165Z,82.70
2018-10-17T03:13:27.992Z,83.25
2018-10-17T03:15:54.830Z,83.26
2018-10-17T03:18:21.684Z,83.76
2018-10-17T03:20:48.541Z,83.59
2018-10-17T03:23:15.429Z,80.08
2018-10-17T03:25:42.214Z,81.44
2018-10-17T03:28:09.085Z,79.46
2018-10-17T03:30:35.916Z,78.74
2018-10-17T03:33:02.758Z,80.64
2018-10-17T03:35:29.651Z,80.72
2018-10-17T03:37:56.507Z,80.49
2018-10-17T03:40:23.371Z,84.23
2018-10-17T03:42:50.223Z,84.90
2018-10-17T03:45:17.072Z,85.22
2018-10-17T03:47:43.896Z,84.49
2018-10-17T03:50:10.743Z,84.08
2018-10-17T03:52:37.606Z,81.19
2018-10-17T03:55:04.565Z,81.58
2018-10-17T03:57:31.386Z,82.98
2018-10-17T03:59:58.227Z,82.26
2018-10-17T04:02:25.069Z,81.46
2018-10-17T04:04:51.989Z,80.43
2018-10-17T04:07:18.924Z,78.97
2018-10-17T04:09:45.751Z,82.80
2018-10-17T04:12:12.682Z,86.29
2018-10-17T04:14:39.623Z,85.54
2018-10-17T04:17:06.523Z,83.22
2018-10-17T04:19:33.315Z,83.50
2018-10-17T04:22:00.270Z,84.05
2018-10-17T04:24:27.191Z,83.04
2018-10-17T04:26:54.039Z,83.75
2018-10-17T04:29:20.990Z,84.14
2018-10-17T04:31:47.927Z,84.07
2018-10-17T04:34:14.893Z,83.19
2018-10-17T04:36:41.819Z,81.97
2018-10-17T04:39:10.087Z,82.12
2018-10-17T04:41:36.942Z,81.49
2018-10-17T04:44:04.566Z,81.17
2018-10-17T04:46:31.443Z,80.60
2018-10-17T04:48:58.482Z,81.06
2018-10-17T04:51:25.467Z,81.34
2018-10-17T04:53:52.386Z,81.01
2018-10-17T04:56:19.326Z,81.81
2018-10-17T04:58:46.168Z,82.20
2018-10-17T05:01:13.170Z,81.78
2018-10-17T05:03:39.971Z,81.31
2018-10-17T05:06:06.808Z,80.92
2018-10-17T05:08:33.656Z,81.20
2018-10-17T05:11:00.556Z,82.20
2018-10-17T05:13:27.571Z,83.48
2018-10-17T05:15:54.417Z,83.94
2018-10-17T05:18:21.263Z,84.04
2018-10-17T05:20:48.099Z,85.84
2018-10-17T05:23:15.024Z,85.26
2018-10-17T05:25:41.794Z,84.67
2018-10-17T05:28:08.635Z,82.14
2018-10-17T05:30:35.737Z,82.33
2018-10-17T05:33:02.582Z,82.19
2018-10-17T05:35:29.427Z,84.71
2018-10-17T05:37:56.347Z,86.01
2018-10-17T05:40:23.126Z,86.40
2018-10-17T05:42:49.974Z,85.67
2018-10-17T05:45:16.828Z,85.51
2018-10-17T05:47:43.670Z,84.92
2018-10-17T05:50:10.514Z,85.92
2018-10-17T05:52:37.397Z,86.66
2018-10-17T05:55:04.581Z,87.59
2018-10-17T05:57:31.370Z,88.00
2018-10-17T05:59:58.320Z,84.99
2018-10-17T06:02:28.408Z,86.33
2018-10-17T06:04:55.372Z,85.51
2018-10-17T06:07:22.275Z,84.84
2018-10-17T06:09:49.228Z,85.52
2018-10-17T06:12:16.374Z,84.91
2018-10-17T06:14:43.302Z,83.83
2018-10-17T06:17:10.277Z,82.49
2018-10-17T06:19:37.191Z,82.64
2018-10-17T06:22:04.174Z,82.17
2018-10-17T06:24:31.067Z,83.09
2018-10-17T06:26:57.923Z,82.42
2018-10-17T06:29:24.766Z,82.40
2018-10-17T06:31:51.727Z,83.32
2018-10-17T06:34:18.673Z,82.61
2018-10-17T06:36:45.507Z,84.35
2018-10-17T06:39:12.455Z,83.94
2018-10-17T06:41:39.486Z,85.81
2018-10-17T06:44:06.820Z,87.04
2018-10-17T06:46:33.593Z,87.66
2018-10-17T06:49:00.439Z,87.69
2018-10-17T06:51:27.284Z,87.76
2018-10-17T06:53:54.203Z,90.06
2018-10-17T06:56:20.958Z,90.79
2018-10-17T06:58:47.794Z,91.21
2018-10-17T07:01:14.726Z,90.69
2018-10-17T07:03:41.503Z,90.14
2018-10-17T07:06:08.346Z,89.81
2018-10-17T07:08:35.271Z,91.00
2018-10-17T07:11:02.200Z,90.86
2018-10-17T07:13:29.055Z,90.21
2018-10-17T07:15:55.994Z,89.57
2018-10-17T07:18:22.845Z,89.17
2018-10-17T07:20:49.682Z,88.46
2018-10-17T07:23:16.607Z,87.20
2018-10-17T07:25:43.349Z,87.62
2018-10-17T07:28:10.172Z,85.87
2018-10-17T07:30:37.027Z,85.80
2018-10-17T07:33:03.981Z,86.15
2018-10-17T07:35:30.880Z,85.93
2018-10-17T07:37:57.650Z,85.45
2018-10-17T07:40:24.474Z,83.96
2018-10-17T07:42:51.320Z,82.91
2018-10-17T07:45:18.157Z,82.90
2018-10-17T07:47:45.147Z,81.85
2018-10-17T07:50:12.120Z,82.54
2018-10-17T07:52:39.247Z,82.08
2018-10-17T07:55:07.194Z,80.59
2018-10-17T07:57:34.027Z,78.92
2018-10-17T08:00:00.934Z,78.69
2018-10-17T08:02:27.715Z,78.16
2018-10-17T08:04:54.555Z,79.10
2018-10-17T08:07:21.426Z,77.00
2018-10-17T08:09:48.290Z,76.87
2018-10-17T08:12:15.229Z,77.80
2018-10-17T08:14:42.087Z,74.94
2018-10-17T08:17:09.310Z,74.68
2018-10-17T08:19:36.163Z,74.07
2018-10-17T08:22:03.374Z,73.44
2018-10-17T08:24:30.195Z,73.77
2018-10-17T08:26:57.059Z,73.12
2018-10-17T08:29:23.904Z,72.87
2018-10-17T08:31:50.747Z,72.42
2018-10-17T08:34:17.600Z,71.63
2018-10-17T08:36:44.776Z,71.77
2018-10-17T08:39:11.303Z,69.55
2018-10-17T08:41:38.126Z,68.52
2018-10-17T08:44:05.046Z,69.92
2018-10-17T08:46:31.859Z,69.85
2018-10-17T08:48:58.706Z,69.68
2018-10-17T08:51:25.555Z,69.65
2018-10-17T08:53:52.387Z,68.96
2018-10-17T08:56:19.255Z,68.84
2018-10-17T08:58:46.089Z,68.12
2018-10-17T09:01:12.931Z,68.29
2018-10-17T09:03:39.778Z,67.27
2018-10-17T09:06:06.720Z,65.56
2018-10-17T09:08:33.480Z,66.57
2018-10-17T09:11:00.334Z,66.53
2018-10-17T09:13:27.234Z,65.56
2018-10-17T09:15:54.030Z,64.80
2018-10-17T09:18:20.907Z,64.43
2018-10-17T09:20:48.002Z,63.36
2018-10-17T09:23:14.574Z,64.15
2018-10-17T09:25:41.416Z,62.12
2018-10-17T09:28:08.334Z,60.95
2018-10-17T09:30:35.146Z,62.30
2018-10-17T09:33:01.964Z,61.18
2018-10-17T09:35:28.859Z,60.58
2018-10-17T09:37:55.658Z,60.27
2018-10-17T09:40:22.506Z,60.75
2018-10-17T09:42:49.350Z,60.73
2018-10-17T09:45:16.196Z,60.38
2018-10-17T09:47:43.040Z,60.92
2018-10-17T09:50:10.404Z,59.83
2018-10-17T09:52:37.198Z,60.15
2018-10-17T09:55:04.487Z,60.41
2018-10-17T09:57:31.339Z,59.59
2018-10-17T09:59:58.191Z,58.66
2018-10-17T10:02:25.201Z,58.00
2018-10-17T10:04:51.875Z,58.65
2018-10-17T10:07:18.718Z,59.03
2018-10-17T10:09:45.559Z,58.03
2018-10-17T10:12:12.500Z,57.05
2018-10-17T10:17:20.106Z,57.49
2018-10-17T10:19:46.839Z,57.46
2018-10-17T10:22:13.714Z,57.74
2018-10-17T10:24:40.654Z,57.02
2018-10-17T10:27:07.538Z,56.60
2018-10-17T10:29:34.500Z,55.47
2018-10-17T10:32:01.335Z,56.83
2018-10-17T10:34:28.282Z,56.09
2018-10-17T10:36:55.215Z,55.08
2018-10-17T10:39:22.163Z,54.75
2018-10-17T10:41:49.098Z,55.88
2018-10-17T10:44:15.988Z,55.87
2018-10-17T10:46:42.887Z,55.72
2018-10-17T10:49:09.784Z,55.37
2018-10-17T10:51:36.761Z,55.23
2018-10-17T10:54:03.672Z,54.45
2018-10-17T10:56:30.585Z,54.67
2018-10-17T10:58:57.532Z,54.37
2018-10-17T11:01:24.446Z,54.65
2018-10-17T11:03:51.390Z,54.23
2018-10-17T11:06:18.235Z,55.44
2018-10-17T11:08:45.070Z,53.33
2018-10-17T11:11:11.965Z,53.08
2018-10-17T11:13:38.788Z,54.29
2018-10-17T11:16:06.255Z,53.59
2018-10-17T11:18:33.117Z,54.23
2018-10-17T11:21:00.000Z,52.70
2018-10-17T11:23:26.863Z,52.61
2018-10-17T11:25:53.730Z,53.60
2018-10-17T11:28:20.566Z,53.58
2018-10-17T11:30:48.542Z,52.00
2018-10-17T11:33:15.438Z,52.33
2018-10-17T11:35:42.233Z,52.08
2018-10-17T11:38:09.075Z,51.97
2018-10-17T11:40:35.996Z,51.23
2018-10-17T11:43:02.771Z,52.77
2018-10-17T11:45:29.630Z,52.56
2018-10-17T11:47:56.452Z,53.06
2018-10-17T11:50:23.360Z,52.30
2018-10-17T11:52:50.182Z,53.54
2018-10-17T11:55:17.071Z,53.24
2018-10-17T11:57:43.983Z,53.56
2018-10-17T12:00:12.154Z,53.45
2018-10-17T12:02:39.003Z,53.77
2018-10-17T12:05:08.546Z,53.17
2018-10-17T12:07:35.374Z,53.72
2018-10-17T12:10:02.457Z,53.26
2018-10-17T12:12:29.469Z,53.16
2018-10-17T12:14:56.469Z,52.01
2018-10-17T12:17:23.374Z,52.89
2018-10-17T12:19:50.335Z,52.85
2018-10-17T12:22:17.273Z,53.06
2018-10-17T12:24:44.216Z,52.22
2018-10-17T12:27:11.121Z,51.69
2018-10-17T12:29:38.096Z,52.12
2018-10-17T12:32:05.174Z,52.03
2018-10-17T12:34:32.114Z,51.26
2018-10-17T12:36:59.142Z,52.19
2018-10-17T12:39:26.119Z,52.51
2018-10-17T12:41:52.903Z,51.92
2018-10-17T12:44:19.930Z,52.42
2018-10-17T12:46:46.762Z,52.69
2018-10-17T12:49:13.846Z,52.27
2018-10-17T12:51:40.740Z,53.04
2018-10-17T12:54:07.632Z,52.15
2018-10-17T12:56:34.699Z,51.47
2018-10-17T12:59:01.684Z,52.01
2018-10-17T13:01:28.542Z,52.06
2018-10-17T13:03:55.503Z,52.30
2018-10-17T13:06:22.489Z,52.86
2018-10-17T13:08:49.377Z,52.95
2018-10-17T13:11:16.433Z,51.67
2018-10-17T13:13:43.170Z,51.51
2018-10-17T13:16:10.115Z,51.50
2018-10-17T13:18:37.083Z,52.32
2018-10-17T13:21:04.527Z,51.60
2018-10-17T13:23:31.536Z,51.77
2018-10-17T13:25:58.707Z,52.38
2018-10-17T13:28:25.551Z,50.49
2018-10-17T13:30:52.541Z,51.57
2018-10-17T13:33:19.546Z,50.54
2018-10-17T13:35:47.427Z,51.34
2018-10-17T13:38:14.351Z,50.40
2018-10-17T13:40:41.319Z,50.57
2018-10-17T13:43:08.310Z,50.67
2018-10-17T13:45:35.215Z,50.00
2018-10-17T13:48:02.148Z,49.40
2018-10-17T13:50:29.075Z,50.17
2018-10-17T13:52:56.040Z,50.15
2018-10-17T13:55:22.945Z,49.32
2018-10-17T13:57:49.915Z,49.40
2018-10-17T14:00:16.676Z,51.65
2018-10-17T14:02:43.999Z,50.08
2018-10-17T14:05:10.847Z,48.60
2018-10-17T14:07:37.795Z,48.83
2018-10-17T14:10:05.063Z,48.64
2018-10-17T14:12:32.055Z,48.60
2018-10-17T14:14:59.087Z,47.85
2018-10-17T14:17:25.903Z,48.60
2018-10-17T14:19:52.930Z,48.51
2018-10-17T14:22:19.887Z,49.23
2018-10-17T14:24:46.820Z,49.01
2018-10-17T14:27:13.860Z,48.43
2018-10-17T14:29:40.650Z,48.24
2018-10-17T14:32:07.547Z,49.72
2018-10-17T14:34:34.423Z,48.36
2018-10-17T14:37:01.333Z,48.87
2018-10-17T14:39:28.295Z,48.80
2018-10-17T14:41:55.021Z,49.82
2018-10-17T14:44:21.960Z,50.08
2018-10-17T14:46:48.814Z,50.46
2018-10-17T14:49:15.766Z,51.27
2018-10-17T14:51:42.717Z,52.27
2018-10-17T14:54:09.719Z,53.01
2018-10-17T14:56:36.595Z,52.33
2018-10-17T14:59:03.659Z,52.43
2018-10-17T15:01:30.555Z,51.79
2018-10-17T15:03:57.438Z,51.73
2018-10-17T15:06:24.366Z,52.31
2018-10-17T15:08:51.264Z,52.66
2018-10-17T15:11:18.279Z,54.47
2018-10-17T15:13:45.094Z,54.13
2018-10-17T15:16:11.951Z,54.05
2018-10-17T15:18:38.879Z,54.25
2018-10-17T15:21:05.803Z,55.54
2018-10-17T15:23:32.672Z,56.11
2018-10-17T15:25:59.511Z,55.50
2018-10-17T15:28:26.355Z,55.37
2018-10-17T15:30:53.302Z,55.03
2018-10-17T15:33:20.143Z,55.71
2018-10-17T15:35:46.988Z,55.12
2018-10-17T15:38:13.930Z,55.66
2018-10-17T15:40:40.787Z,56.06
2018-10-17T15:43:07.668Z,56.47
2018-10-17T15:45:34.478Z,55.44
2018-10-17T15:48:01.399Z,56.47
2018-10-17T15:50:29.274Z,56.30
2018-10-17T15:52:56.138Z,57.53
2018-10-17T15:55:22.979Z,56.91
2018-10-17T15:57:49.898Z,57.83
2018-10-17T16:00:17.859Z,58.29
2018-10-17T16:02:45.719Z,58.71
2018-10-17T16:05:12.494Z,58.02
2018-10-17T16:07:40.862Z,59.00
2018-10-17T16:10:08.119Z,59.73
2018-10-17T16:12:35.071Z,59.75
2018-10-17T16:15:01.991Z,60.44
2018-10-17T16:17:29.042Z,60.67
2018-10-17T16:19:55.921Z,60.90
2018-10-17T16:22:22.888Z,61.19
2018-10-17T16:24:49.783Z,60.63
2018-10-17T16:27:16.646Z,61.50
2018-10-17T16:29:43.543Z,61.59
2018-10-17T16:32:10.464Z,62.01
2018-10-17T16:34:37.255Z,61.53
2018-10-17T16:37:04.336Z,61.78
2018-10-17T16:39:31.255Z,63.24
2018-10-17T16:41:58.178Z,63.61
2018-10-17T16:44:25.003Z,62.74
2018-10-17T16:46:51.933Z,63.34
2018-10-17T16:49:18.803Z,63.22
2018-10-17T16:51:45.651Z,64.21
2018-10-17T16:54:12.600Z,63.48
2018-10-17T16:56:39.368Z,63.72
2018-10-17T16:59:06.218Z,63.65
2018-10-17T17:01:33.093Z,64.10
2018-10-17T17:04:00.021Z,64.55
2018-10-17T17:06:26.903Z,64.99
2018-10-17T17:08:53.781Z,64.86
2018-10-17T17:11:20.626Z,66.53
2018-10-17T17:13:47.475Z,66.39
2018-10-17T17:16:14.366Z,65.03
2018-10-17T17:18:41.214Z,66.05
2018-10-17T17:21:08.120Z,65.97
2018-10-17T17:23:34.928Z,66.36
2018-10-17T17:26:01.813Z,65.78
2018-10-17T17:28:28.678Z,65.72
2018-10-17T17:30:55.542Z,65.39
2018-10-17T17:33:22.390Z,66.33
2018-10-17T17:35:49.254Z,66.71
2018-10-17T17:38:16.127Z,68.06
2018-10-17T17:40:42.983Z,69.42
2018-10-17T17:43:09.854Z,69.77
2018-10-17T17:45:36.732Z,70.37
2018-10-17T17:48:03.607Z,70.91
2018-10-17T17:50:30.487Z,70.14
2018-10-17T17:52:57.364Z,71.20
2018-10-17T17:55:24.704Z,70.80
2018-10-17T17:57:51.664Z,70.25
2018-10-17T18:00:18.501Z,70.44
2018-10-17T18:02:45.364Z,70.98
2018-10-17T18:05:12.264Z,71.37
2018-10-17T18:07:39.131Z,71.40
2018-10-17T18:10:06.630Z,70.78
2018-10-17T18:12:37.232Z,70.46
2018-10-17T18:15:05.209Z,71.11
2018-10-17T18:17:32.071Z,70.85
2018-10-17T18:19:58.933Z,70.97
2018-10-17T18:22:25.869Z,71.36
2018-10-17T18:24:52.658Z,71.10
2018-10-17T18:27:19.595Z,71.41
2018-10-17T18:29:46.457Z,71.29
2018-10-17T18:32:13.315Z,71.53
2018-10-17T18:34:40.179Z,72.85
2018-10-17T18:37:07.107Z,73.01
2018-10-17T18:39:34.071Z,72.76
2018-10-17T18:42:00.956Z,72.61
2018-10-17T18:44:27.951Z,72.88
2018-10-17T18:46:55.810Z,73.34
2018-10-17T18:49:22.672Z,72.38
2018-10-17T18:51:49.539Z,73.01
2018-10-17T18:54:16.401Z,72.73
2018-10-17T18:56:43.281Z,72.68
2018-10-17T18:59:10.171Z,72.79
2018-10-17T19:01:37.149Z,71.67
2018-10-17T19:04:04.331Z,71.65
2018-10-17T19:06:31.186Z,71.86
2018-10-17T19:08:58.056Z,71.62
2018-10-17T19:11:24.930Z,71.96
2018-10-17T19:13:51.783Z,71.43
2018-10-17T19:16:18.685Z,70.27
2018-10-17T19:18:45.503Z,71.62
2018-10-17T19:21:12.433Z,71.05
2018-10-17T19:23:39.522Z,71.31
2018-10-17T19:26:06.420Z,71.40
2018-10-17T19:28:33.299Z,70.29
2018-10-17T19:31:00.173Z,70.84
2018-10-17T19:33:27.047Z,71.57
2018-10-17T19:35:53.962Z,70.81
2018-10-17T19:38:20.800Z,71.04
2018-10-17T19:40:47.920Z,71.23
2018-10-17T19:43:14.811Z,71.02
2018-10-17T19:45:41.648Z,72.13
2018-10-17T19:48:08.539Z,72.22
2018-10-17T19:50:35.454Z,70.74
2018-10-17T19:53:02.364Z,71.45
2018-10-17T19:55:29.215Z,70.77
2018-10-17T19:57:56.064Z,71.41
2018-10-17T20:00:22.971Z,71.44
2018-10-17T20:02:50.479Z,70.95
2018-10-17T20:05:17.340Z,70.24
2018-10-17T20:07:44.299Z,70.11
2018-10-17T20:10:11.123Z,70.44
2018-10-17T20:12:38.019Z,71.59
2018-10-17T20:15:05.596Z,70.86
2018-10-17T20:17:32.427Z,71.22
2018-10-17T20:19:59.279Z,71.61
2018-10-17T20:22:26.155Z,71.85
2018-10-17T20:24:53.089Z,69.93
2018-10-17T20:27:19.987Z,71.10
2018-10-17T20:29:46.855Z,71.06
2018-10-17T20:32:13.739Z,70.99
2018-10-17T20:34:40.599Z,72.28
2018-10-17T20:37:07.472Z,72.95
2018-10-17T20:39:34.327Z,72.03
2018-10-17T20:42:01.281Z,71.72
2018-10-17T20:44:28.412Z,71.44
2018-10-17T20:46:55.291Z,72.13
2018-10-17T20:49:22.148Z,71.94
2018-10-17T20:51:48.998Z,72.11
2018-10-17T20:54:15.858Z,71.87
2018-10-17T20:56:42.711Z,72.09
2018-10-17T20:59:09.618Z,72.81
2018-10-17T21:01:36.593Z,72.64
2018-10-17T21:04:03.496Z,72.40
2018-10-17T21:06:30.344Z,73.91
2018-10-17T21:08:57.195Z,73.64
2018-10-17T21:11:24.125Z,74.41
2018-10-17T21:13:50.919Z,75.24
2018-10-17T21:16:17.835Z,76.45
2018-10-17T21:18:44.765Z,76.60
2018-10-17T21:21:11.559Z,76.77
2018-10-17T21:23:38.423Z,77.71
2018-10-17T21:26:05.341Z,77.92
2018-10-17T21:28:32.206Z,77.11
2018-10-17T21:30:59.055Z,75.82
2018-10-17T21:33:25.911Z,76.50
2018-10-17T21:35:52.974Z,75.47
2018-10-17T21:38:19.962Z,75.48
2018-10-17T21:40:46.744Z,75.25
2018-10-17T21:43:13.607Z,75.78
2018-10-17T21:45:40.474Z,74.96
2018-10-17T21:48:07.335Z,75.05
2018-10-17T21:50:34.235Z,74.48
2018-10-17T21:53:01.101Z,75.91
2018-10-17T21:55:27.947Z,76.34
2018-10-17T21:57:54.816Z,76.31
2018-10-17T22:00:21.663Z,75.30
2018-10-17T22:02:48.531Z,76.36
2018-10-17T22:05:15.384Z,76.31
2018-10-17T22:07:42.247Z,76.03
2018-10-17T22:10:09.222Z,75.74
2018-10-17T22:12:36.264Z,76.02
2018-10-17T22:15:03.943Z,75.36
2018-10-17T22:17:30.812Z,75.54
2018-10-17T22:19:57.783Z,76.00
2018-10-17T22:22:25.039Z,76.60
2018-10-17T22:24:52.492Z,76.76
2018-10-17T22:27:19.571Z,76.12
2018-10-17T22:29:46.473Z,75.47
2018-10-17T22:32:14.341Z,76.08
2018-10-17T22:34:41.203Z,75.48
2018-10-17T22:37:08.079Z,76.39
2018-10-17T22:39:34.991Z,76.29
2018-10-17T22:42:01.843Z,75.69
2018-10-17T22:44:28.711Z,75.67
2018-10-17T22:46:55.575Z,76.72
2018-10-17T22:49:22.433Z,76.55
2018-10-17T22:51:49.300Z,76.36
2018-10-17T22:54:16.158Z,78.30
2018-10-17T22:56:43.015Z,77.49
2018-10-17T22:59:09.878Z,77.68
2018-10-17T23:01:37.251Z,77.85
2018-10-17T23:04:04.479Z,78.00
2018-10-17T23:06:31.331Z,78.41
2018-10-17T23:08:58.198Z,78.22
2018-10-17T23:11:25.071Z,78.00
2018-10-17T23:13:52.001Z,77.69
2018-10-17T23:16:18.859Z,77.50
2018-10-17T23:18:45.724Z,77.64
2018-10-17T23:21:12.611Z,78.24
2018-10-17T23:23:39.484Z,78.40
2018-10-17T23:26:06.741Z,77.29
2018-10-17T23:28:33.579Z,76.04
2018-10-17T23:31:01.424Z,75.87
2018-10-17T23:33:28.285Z,75.06
2018-10-17T23:35:55.138Z,74.48
2018-10-17T23:38:21.999Z,74.72
2018-10-17T23:40:48.861Z,74.38
2018-10-17T23:43:15.721Z,75.24
2018-10-17T23:45:43.602Z,75.97
2018-10-17T23:48:10.560Z,75.90
2018-10-17T23:50:37.979Z,75.81
2018-10-17T23:53:04.943Z,75.86
2018-10-17T23:55:31.813Z,76.16
2018-10-17T23:57:58.669Z,76.97
